createdAt,value
2019-05-12T00:01:09.706Z,6.92
2019-05-12T00:06:15.053Z,6.69
2019-05-12T00:11:20.403Z,6.64
2019-05-12T00:16:28.188Z,6.55
2019-05-12T00:21:32.974Z,6.48
2019-05-12T00:26:38.398Z,6.41
2019-05-12T00:31:43.782Z,6.39
2019-05-12T00:36:49.176Z,6.27
2019-05-12T00:41:54.862Z,6.15
2019-05-12T00:47:00.167Z,6.11
2019-05-12T00:52:05.507Z,6.15
2019-05-12T00:57:10.807Z,6.17
2019-05-12T01:02:20.239Z,6.18
2019-05-12T01:07:27.726Z,6.18
2019-05-12T01:12:32.507Z,6.20
2019-05-12T01:17:40.076Z,6.12
2019-05-12T01:22:45.662Z,6.11
2019-05-12T01:27:50.939Z,6.04
2019-05-12T01:32:58.090Z,6.01
2019-05-12T01:38:04.080Z,6.04
2019-05-12T01:43:09.819Z,5.95
2019-05-12T01:48:15.469Z,5.93
2019-05-12T01:53:20.808Z,5.88
2019-05-12T01:58:27.785Z,5.78
2019-05-12T02:03:33.344Z,5.77
2019-05-12T02:08:44.903Z,5.76
2019-05-12T02:13:50.153Z,5.76
2019-05-12T02:18:55.397Z,5.71
2019-05-12T02:24:00.653Z,5.60
2019-05-12T02:29:07.866Z,5.40
2019-05-12T02:34:15.703Z,5.31
2019-05-12T02:39:20.159Z,5.23
2019-05-12T02:44:34.676Z,5.03
2019-05-12T02:49:50.588Z,4.75
2019-05-12T02:55:05.937Z,4.60
2019-05-12T03:00:24.246Z,4.47
2019-05-12T03:05:36.120Z,4.55
2019-05-12T03:10:46.154Z,4.48
2019-05-12T03:15:54.886Z,4.36
2019-05-12T03:21:00.149Z,4.21
2019-05-12T03:26:06.919Z,4.25
2019-05-12T03:31:22.205Z,4.11
2019-05-12T03:36:21.306Z,4.12
2019-05-12T03:41:27.390Z,3.90
2019-05-12T03:46:35.564Z,3.78
2019-05-12T03:51:45.371Z,3.83
2019-05-12T03:56:55.498Z,3.79
2019-05-12T04:02:00.116Z,3.86
2019-05-12T04:07:06.446Z,3.86
2019-05-12T04:12:14.791Z,3.97
2019-05-12T04:17:24.332Z,4.08
2019-05-12T04:22:30.529Z,4.20
2019-05-12T04:27:36.991Z,4.24
2019-05-12T04:32:45.551Z,4.29
2019-05-12T04:37:55.064Z,4.29
2019-05-12T04:43:05.853Z,4.29
2019-05-12T04:48:10.970Z,4.33
2019-05-12T04:53:25.345Z,4.41
2019-05-12T04:58:34.844Z,4.45
2019-05-12T05:03:39.112Z,4.54
2019-05-12T05:08:45.006Z,4.58
2019-05-12T05:13:51.410Z,4.82
2019-05-12T05:18:58.717Z,4.99
2019-05-12T05:24:05.131Z,5.21
2019-05-12T05:29:13.526Z,5.42
2019-05-12T05:34:23.585Z,5.73
2019-05-12T05:39:35.427Z,5.98
2019-05-12T05:44:43.477Z,6.33
2019-05-12T05:49:49.941Z,6.64
2019-05-12T05:54:56.772Z,6.92
2019-05-12T06:00:07.330Z,7.13
2019-05-12T06:05:11.399Z,7.64
2019-05-12T06:10:19.460Z,8.08
2019-05-12T06:15:29.759Z,8.24
2019-05-12T06:20:37.660Z,8.31
2019-05-12T06:25:49.279Z,8.29
2019-05-12T06:30:54.620Z,8.27
2019-05-12T06:36:03.754Z,8.05
2019-05-12T06:41:12.612Z,8.09
2019-05-12T06:46:21.042Z,8.29
2019-05-12T06:51:26.015Z,8.24
2019-05-12T06:56:34.365Z,8.19
2019-05-12T07:01:39.945Z,8.21
2019-05-12T07:06:49.772Z,8.31
2019-05-12T07:12:02.706Z,8.48
2019-05-12T07:17:07.305Z,8.61
2019-05-12T07:22:21.867Z,8.45
2019-05-12T07:27:35.284Z,8.26
2019-05-12T07:32:31.095Z,8.42
2019-05-12T07:37:38.166Z,8.38
2019-05-12T07:42:43.934Z,8.53
2019-05-12T07:47:49.189Z,8.44
2019-05-12T07:52:54.471Z,8.50
2019-05-12T07:58:10.303Z,8.42
2019-05-12T08:03:15.954Z,8.42
2019-05-12T08:08:14.538Z,8.61
2019-05-12T08:13:20.072Z,8.98
2019-05-12T08:18:25.330Z,9.08
2019-05-12T08:23:33.846Z,9.25
2019-05-12T08:28:40.379Z,9.28
2019-05-12T08:33:45.947Z,9.46
2019-05-12T08:38:53.602Z,9.56
2019-05-12T08:43:58.692Z,9.75
2019-05-12T08:49:05.594Z,9.45
2019-05-12T08:54:10.837Z,10.39
2019-05-12T08:59:18.493Z,11.14
2019-05-12T09:04:24.705Z,11.19
2019-05-12T09:09:30.096Z,11.13
2019-05-12T09:14:41.055Z,10.94
2019-05-12T09:19:43.604Z,10.58
2019-05-12T09:24:49.263Z,10.74
2019-05-12T09:29:59.217Z,11.45
2019-05-12T09:35:04.034Z,11.82
2019-05-12T09:40:09.169Z,12.24
2019-05-12T09:45:15.546Z,12.12
2019-05-12T09:50:20.769Z,12.02
2019-05-12T09:55:26.266Z,11.56
2019-05-12T10:00:36.038Z,11.58
2019-05-12T10:05:41.204Z,11.54
2019-05-12T10:10:47.191Z,11.61
2019-05-12T10:15:53.591Z,12.27
2019-05-12T10:20:59.273Z,12.65
2019-05-12T10:26:10.047Z,12.37
2019-05-12T10:31:13.835Z,11.99
2019-05-12T10:36:18.861Z,12.88
2019-05-12T10:41:24.128Z,12.65
2019-05-12T10:46:29.421Z,13.12
2019-05-12T10:51:35.067Z,13.68
2019-05-12T10:56:40.441Z,13.67
2019-05-12T11:01:49.026Z,13.44
2019-05-12T11:06:53.776Z,13.83
2019-05-12T11:11:59.073Z,13.97
2019-05-12T11:17:09.140Z,13.43
2019-05-12T11:22:14.920Z,13.78
2019-05-12T11:27:20.221Z,14.42
2019-05-12T11:32:28.931Z,15.46
2019-05-12T11:37:33.840Z,15.63
2019-05-12T11:42:39.111Z,14.58
2019-05-12T11:47:44.757Z,16.59
2019-05-12T11:52:51.087Z,16.68
2019-05-12T11:58:00.230Z,16.85
2019-05-12T12:03:18.172Z,17.40
2019-05-12T12:08:18.264Z,17.36
2019-05-12T12:13:29.755Z,17.45
2019-05-12T12:18:33.755Z,17.89
2019-05-12T12:23:50.190Z,18.74
2019-05-12T12:28:56.852Z,18.94
2019-05-12T12:34:02.650Z,17.37
2019-05-12T12:39:07.959Z,19.10
2019-05-12T12:44:13.619Z,21.35
2019-05-12T12:49:18.899Z,21.99
2019-05-12T12:54:24.655Z,21.37
2019-05-12T12:59:29.883Z,20.36
2019-05-12T13:04:39.709Z,20.85
2019-05-12T13:09:44.230Z,19.02
2019-05-12T13:14:49.794Z,21.95
2019-05-12T13:19:58.638Z,20.08
2019-05-12T13:25:04.480Z,20.53
2019-05-12T13:30:16.292Z,18.13
2019-05-12T13:35:20.004Z,19.99
2019-05-12T13:40:23.883Z,22.86
2019-05-12T13:45:29.687Z,19.38
2019-05-12T13:50:43.400Z,22.57
2019-05-12T13:55:50.081Z,19.17
2019-05-12T14:06:04.106Z,23.10
2019-05-12T14:11:12.599Z,25.28
2019-05-12T14:16:20.827Z,23.28
2019-05-12T14:21:35.282Z,20.64
2019-05-12T14:26:39.282Z,22.40
2019-05-12T14:31:50.979Z,24.11
2019-05-12T14:37:10.429Z,23.47
2019-05-12T14:42:14.160Z,19.46
2019-05-12T14:47:25.690Z,20.58
2019-05-12T14:52:33.274Z,24.98
2019-05-12T14:57:39.451Z,23.06
2019-05-12T15:02:44.785Z,20.13
2019-05-12T15:07:51.528Z,24.00
2019-05-12T15:13:03.509Z,23.60
2019-05-12T15:18:12.864Z,24.56
2019-05-12T15:23:16.537Z,20.16
2019-05-12T15:28:23.681Z,20.26
2019-05-12T15:33:29.054Z,19.03
2019-05-12T15:38:34.422Z,16.95
2019-05-12T15:43:44.407Z,16.02
2019-05-12T15:48:47.714Z,15.71
2019-05-12T15:53:57.275Z,15.91
2019-05-12T15:59:00.986Z,17.51
2019-05-12T16:04:06.992Z,16.82
2019-05-12T16:09:13.259Z,16.94
2019-05-12T16:14:19.215Z,15.95
2019-05-12T16:19:26.538Z,15.50
2019-05-12T16:24:33.926Z,15.06
2019-05-12T16:29:38.842Z,14.78
2019-05-12T16:34:48.773Z,14.99
2019-05-12T16:39:54.069Z,14.87
2019-05-12T16:45:05.941Z,14.76
2019-05-12T16:50:15.182Z,14.84
2019-05-12T16:55:14.042Z,14.87
2019-05-12T17:00:20.560Z,14.66
2019-05-12T17:05:25.886Z,14.29
2019-05-12T17:10:31.182Z,14.13
2019-05-12T17:15:36.816Z,13.85
2019-05-12T17:20:47.026Z,13.80
2019-05-12T17:25:49.984Z,13.82
2019-05-12T17:30:55.203Z,13.82
2019-05-12T17:36:03.111Z,13.75
2019-05-12T17:41:08.547Z,13.80
2019-05-12T17:46:18.099Z,13.74
2019-05-12T17:51:26.789Z,13.75
2019-05-12T17:56:36.674Z,13.52
2019-05-12T18:01:38.716Z,13.42
2019-05-12T18:06:44.237Z,13.43
2019-05-12T18:11:54.288Z,13.25
2019-05-12T18:17:02.508Z,13.35
2019-05-12T18:22:09.104Z,13.05
2019-05-12T18:27:10.752Z,12.93
2019-05-12T18:32:16.415Z,12.82
2019-05-12T18:37:23.933Z,12.66
2019-05-12T18:42:28.639Z,12.49
2019-05-12T18:47:36.505Z,12.35
2019-05-12T18:52:43.661Z,12.17
2019-05-12T18:57:50.073Z,11.95
2019-05-12T19:02:59.814Z,11.81
2019-05-12T19:08:03.853Z,11.63
2019-05-12T19:13:09.494Z,11.49
2019-05-12T19:18:18.341Z,11.39
2019-05-12T19:23:26.949Z,11.25
2019-05-12T19:28:31.404Z,11.25
2019-05-12T19:33:43.855Z,11.14
2019-05-12T19:38:44.603Z,11.05
2019-05-12T19:43:53.298Z,10.97
2019-05-12T19:48:58.281Z,10.89
2019-05-12T19:54:04.835Z,10.89
2019-05-12T19:59:10.757Z,10.69
2019-05-12T20:04:29.649Z,10.58
2019-05-12T20:09:24.354Z,10.50
2019-05-12T20:14:30.471Z,10.41
2019-05-12T20:19:36.351Z,10.36
2019-05-12T20:24:44.308Z,10.32
2019-05-12T20:29:49.732Z,10.18
2019-05-12T20:34:55.470Z,9.80
2019-05-12T20:40:05.273Z,9.52
2019-05-12T20:45:13.597Z,9.47
2019-05-12T20:50:24.277Z,9.47
2019-05-12T20:55:30.068Z,9.49
2019-05-12T21:00:33.771Z,9.43
2019-05-12T21:05:39.589Z,8.97
2019-05-12T21:10:45.990Z,8.63
2019-05-12T21:15:53.759Z,8.65
2019-05-12T21:20:58.496Z,8.56
2019-05-12T21:26:04.507Z,8.51
2019-05-12T21:31:10.256Z,8.41
2019-05-12T21:36:23.857Z,8.05
2019-05-12T21:41:24.593Z,7.76
2019-05-12T21:46:31.776Z,7.83
2019-05-12T21:51:38.080Z,7.70
2019-05-12T21:56:48.010Z,7.64
2019-05-12T22:01:53.388Z,7.74
2019-05-12T22:06:59.057Z,7.66
2019-05-12T22:12:04.909Z,7.43
2019-05-12T22:17:10.407Z,7.31
2019-05-12T22:22:19.537Z,7.33
2019-05-12T22:27:27.074Z,7.25
2019-05-12T22:32:29.949Z,7.17
2019-05-12T22:37:36.527Z,7.06
2019-05-12T22:42:44.363Z,6.93
2019-05-12T22:47:54.056Z,6.82
2019-05-12T22:52:56.070Z,6.57
2019-05-12T22:58:01.717Z,6.52
2019-05-12T23:03:11.651Z,6.50
2019-05-12T23:08:14.357Z,6.40
2019-05-12T23:13:19.913Z,6.31
2019-05-12T23:18:30.542Z,6.15
2019-05-12T23:23:34.441Z,6.10
2019-05-12T23:28:40.421Z,6.02
2019-05-12T23:33:46.706Z,6.01
2019-05-12T23:39:00.153Z,6.02
2019-05-12T23:43:58.988Z,5.96
2019-05-12T23:49:04.379Z,5.88
2019-05-12T23:54:09.688Z,5.81
2019-05-12T23:59:15.041Z,5.62
